Time;durP1;ratioP1;P1;durP2;ratioP2;P2;SDS_P1;SDS_P2;PMS_P1;PMS_P2;Temp;Humidity;BMP_temperature;BMP_pressure;BME280_temperature;BME280_humidity;BME280_pressure;Samples;Min_cycle;Max_cycle;Signal;HPM_P1;HPM_P2
2023/06/22 00:00:33;;;;;;;15.43;10.70;;;;;;;;;;5015669;28;20033;-76
2023/06/22 00:02:59;;;;;;;17.30;11.68;;;;;;;;;;5017071;28;20050;-75
2023/06/22 00:05:25;;;;;;;15.93;11.77;;;;;;;;;;5022610;28;20037;-77
2023/06/22 00:07:51;;;;;;;15.07;12.02;;;;;;;;;;5024123;28;20616;-78
2023/06/22 00:10:17;;;;;;;13.75;10.65;;;;;;;;;;5023010;28;20034;-71
2023/06/22 00:12:43;;;;;;;13.35;10.40;;;;;;;;;;5021025;28;20075;-74
2023/06/22 00:15:12;;;;;;;17.02;11.55;;;;;;;;;;5024276;28;20072;-74
2023/06/22 00:17:38;;;;;;;17.20;13.25;;;;;;;;;;5020727;28;20029;-75
2023/06/22 00:20:05;;;;;;;17.15;12.40;;;;;;;;;;5022091;28;20514;-75
2023/06/22 00:22:31;;;;;;;21.02;12.18;;;;;;;;;;5031930;28;20041;-74
2023/06/22 00:24:57;;;;;;;16.92;12.73;;;;;;;;;;5019283;28;20036;-74
2023/06/22 00:27:24;;;;;;;20.45;13.07;;;;;;;;;;5017120;28;20128;-74
2023/06/22 00:29:50;;;;;;;23.25;14.15;;;;;;;;;;5021763;28;20105;-75
2023/06/22 00:32:17;;;;;;;16.67;13.48;;;;;;;;;;5023186;28;20124;-74
2023/06/22 00:34:43;;;;;;;21.08;14.75;;;;;;;;;;5019223;28;20116;-75
2023/06/22 00:37:11;;;;;;;22.38;14.70;;;;;;;;;;5018511;28;20065;-75
2023/06/22 00:39:37;;;;;;;19.77;13.80;;;;;;;;;;5023838;28;20036;-75
2023/06/22 00:42:03;;;;;;;25.60;16.85;;;;;;;;;;5021314;28;20354;-75
2023/06/22 00:44:29;;;;;;;18.80;13.93;;;;;;;;;;5024699;28;20061;-74
2023/06/22 00:46:55;;;;;;;18.67;15.82;;;;;;;;;;5017615;28;20033;-75
2023/06/22 00:49:21;;;;;;;22.25;16.48;;;;;;;;;;5015660;28;20641;-74
2023/06/22 00:51:47;;;;;;;23.75;17.23;;;;;;;;;;5016239;28;20025;-75
2023/06/22 00:54:14;;;;;;;22.77;16.60;;;;;;;;;;5020724;28;20033;-75
2023/06/22 00:56:41;;;;;;;25.92;16.60;;;;;;;;;;5017463;28;20037;-75
2023/06/22 00:59:07;;;;;;;21.30;15.65;;;;;;;;;;5016248;28;20380;-75
2023/06/22 01:01:34;;;;;;;21.98;15.73;;;;;;;;;;5024258;28;20037;-75
2023/06/22 01:04:00;;;;;;;23.10;15.80;;;;;;;;;;5021328;28;20116;-74
2023/06/22 01:06:29;;;;;;;25.05;16.92;;;;;;;;;;5017517;28;20124;-75
2023/06/22 01:09:06;;;;;;;22.38;15.73;;;;;;;;;;5020278;28;20048;-75
2023/06/22 01:11:37;;;;;;;19.95;16.50;;;;;;;;;;5022438;28;20048;-75
2023/06/22 01:14:09;;;;;;;27.90;16.65;;;;;;;;;;5020696;28;20033;-74
2023/06/22 01:16:36;;;;;;;21.52;15.85;;;;;;;;;;5021031;28;20578;-74
2023/06/22 01:19:05;;;;;;;21.45;15.85;;;;;;;;;;5036440;28;20120;-74
2023/06/22 01:21:31;;;;;;;21.15;15.07;;;;;;;;;;5019267;28;20121;-73
2023/06/22 01:24:03;;;;;;;22.55;15.52;;;;;;;;;;5018188;28;20080;-74
2023/06/22 01:26:39;;;;;;;19.52;15.00;;;;;;;;;;5020857;28;20379;-73
2023/06/22 01:29:07;;;;;;;17.65;13.77;;;;;;;;;;5020954;28;20049;-74
2023/06/22 01:31:34;;;;;;;19.80;13.65;;;;;;;;;;5017374;28;20487;-74
2023/06/22 01:34:01;;;;;;;19.58;13.23;;;;;;;;;;5019604;28;20029;-74
2023/06/22 01:36:28;;;;;;;17.25;13.05;;;;;;;;;;5016101;28;20052;-73
2023/06/22 01:38:54;;;;;;;16.85;11.95;;;;;;;;;;5024942;28;20049;-74
2023/06/22 01:41:21;;;;;;;15.05;12.40;;;;;;;;;;5021967;28;20033;-74
2023/06/22 01:43:48;;;;;;;14.85;12.95;;;;;;;;;;5038960;28;20037;-73
2023/06/22 01:46:14;;;;;;;14.32;12.35;;;;;;;;;;5020914;28;20037;-74
2023/06/22 01:48:40;;;;;;;13.40;12.05;;;;;;;;;;5017216;28;20387;-73
2023/06/22 01:51:06;;;;;;;17.80;10.95;;;;;;;;;;5019983;28;20064;-74
2023/06/22 01:53:33;;;;;;;20.63;12.60;;;;;;;;;;5021162;28;20033;-73
2023/06/22 01:55:59;;;;;;;48.63;12.07;;;;;;;;;;5018794;28;20087;-74
2023/06/22 01:58:29;;;;;;;15.10;11.73;;;;;;;;;;5016517;28;20096;-74
2023/06/22 02:01:15;;;;;;;15.18;12.18;;;;;;;;;;5018508;28;20038;-74
2023/06/22 02:03:44;;;;;;;14.00;12.30;;;;;;;;;;5016194;28;20068;-74
2023/06/22 02:06:27;;;;;;;12.98;11.65;;;;;;;;;;5019458;28;20030;-73
2023/06/22 02:09:00;;;;;;;15.82;13.45;;;;;;;;;;5012900;28;20041;-74
2023/06/22 02:11:27;;;;;;;15.73;13.35;;;;;;;;;;5020552;28;20044;-73
2023/06/22 02:13:54;;;;;;;16.05;14.10;;;;;;;;;;5016017;28;20383;-73
2023/06/22 02:16:20;;;;;;;15.15;13.55;;;;;;;;;;5018893;28;20041;-74
2023/06/22 02:18:52;;;;;;;13.88;12.18;;;;;;;;;;5022113;28;20467;-73
2023/06/22 02:21:19;;;;;;;17.20;12.82;;;;;;;;;;5018965;28;20036;-73
2023/06/22 02:23:45;;;;;;;15.73;13.10;;;;;;;;;;5023124;28;20013;-73
2023/06/22 02:26:12;;;;;;;14.93;12.90;;;;;;;;;;5018120;28;20287;-73
2023/06/22 02:28:38;;;;;;;14.20;11.70;;;;;;;;;;5018927;28;20143;-74
2023/06/22 02:31:04;;;;;;;16.98;13.63;;;;;;;;;;5021926;28;20124;-74
2023/06/22 02:33:30;;;;;;;17.67;13.68;;;;;;;;;;5023989;28;20068;-74
2023/06/22 02:35:56;;;;;;;16.83;13.75;;;;;;;;;;5021021;28;20026;-74
2023/06/22 02:38:24;;;;;;;16.48;14.80;;;;;;;;;;5018575;28;20111;-73
2023/06/22 02:40:51;;;;;;;17.42;14.48;;;;;;;;;;5033979;28;20038;-73
2023/06/22 02:43:18;;;;;;;17.25;14.80;;;;;;;;;;5019319;28;20105;-73
2023/06/22 02:45:44;;;;;;;16.10;14.32;;;;;;;;;;5022995;28;20034;-74
2023/06/22 02:48:10;;;;;;;15.50;13.93;;;;;;;;;;5020558;28;21648;-73
2023/06/22 02:50:36;;;;;;;18.83;14.73;;;;;;;;;;5025959;28;20424;-74
2023/06/22 02:53:02;;;;;;;18.30;14.32;;;;;;;;;;5027182;28;20475;-74
2023/06/22 02:55:28;;;;;;;16.52;13.55;;;;;;;;;;5024693;28;20041;-74
2023/06/22 02:57:54;;;;;;;14.68;12.98;;;;;;;;;;5023487;28;20561;-74
2023/06/22 03:00:21;;;;;;;15.65;13.88;;;;;;;;;;5027622;28;20108;-74
2023/06/22 03:02:48;;;;;;;19.92;13.65;;;;;;;;;;5016280;28;20022;-74
2023/06/22 03:05:15;;;;;;;16.40;14.20;;;;;;;;;;5021183;28;20036;-74
2023/06/22 03:07:47;;;;;;;13.63;12.02;;;;;;;;;;5020201;28;20033;-74
2023/06/22 03:10:13;;;;;;;13.43;11.60;;;;;;;;;;5022960;28;20076;-74
2023/06/22 03:12:39;;;;;;;16.13;12.82;;;;;;;;;;5023424;28;20025;-74
2023/06/22 03:15:06;;;;;;;12.55;10.90;;;;;;;;;;5023423;28;20038;-75
2023/06/22 03:17:32;;;;;;;12.90;10.73;;;;;;;;;;5026469;28;20040;-74
2023/06/22 03:19:58;;;;;;;12.82;11.52;;;;;;;;;;5020661;28;20120;-74
2023/06/22 03:22:24;;;;;;;11.65;10.45;;;;;;;;;;5019716;28;20373;-75
2023/06/22 03:24:50;;;;;;;14.88;10.77;;;;;;;;;;5027826;28;20112;-75
2023/06/22 03:27:16;;;;;;;13.82;11.13;;;;;;;;;;5021457;28;20129;-75
2023/06/22 03:29:42;;;;;;;14.48;11.80;;;;;;;;;;5023656;28;20026;-75
2023/06/22 03:32:08;;;;;;;11.88;10.68;;;;;;;;;;5023027;28;20033;-74
2023/06/22 03:34:35;;;;;;;12.73;10.60;;;;;;;;;;5020844;28;20073;-75
2023/06/22 03:37:02;;;;;;;14.95;11.07;;;;;;;;;;5023049;28;20026;-75
2023/06/22 03:39:29;;;;;;;16.17;11.70;;;;;;;;;;5022303;28;20032;-75
2023/06/22 03:41:55;;;;;;;13.55;12.13;;;;;;;;;;5022781;28;20033;-75
2023/06/22 03:44:21;;;;;;;17.17;14.68;;;;;;;;;;5024064;28;20068;-75
2023/06/22 03:46:47;;;;;;;18.58;15.52;;;;;;;;;;5025346;28;20037;-75
2023/06/22 03:49:13;;;;;;;18.05;14.07;;;;;;;;;;5022333;28;20284;-74
2023/06/22 03:51:39;;;;;;;17.17;15.00;;;;;;;;;;5024885;28;20444;-75
2023/06/22 03:54:05;;;;;;;17.73;14.35;;;;;;;;;;5022413;28;20077;-75
2023/06/22 03:56:31;;;;;;;17.30;14.68;;;;;;;;;;5020674;28;20037;-75
2023/06/22 03:58:57;;;;;;;16.67;13.75;;;;;;;;;;5034950;28;20116;-75
2023/06/22 04:01:25;;;;;;;16.45;13.63;;;;;;;;;;5024366;28;20091;-75
2023/06/22 04:03:51;;;;;;;16.90;13.38;;;;;;;;;;5020671;28;20399;-74
2023/06/22 04:06:17;;;;;;;15.52;13.93;;;;;;;;;;5020519;28;20032;-74
2023/06/22 04:08:43;;;;;;;14.57;13.18;;;;;;;;;;5025908;28;20029;-75
2023/06/22 04:11:09;;;;;;;14.25;12.57;;;;;;;;;;5035325;28;20026;-74
2023/06/22 04:13:35;;;;;;;14.43;12.95;;;;;;;;;;5018753;28;20049;-75
2023/06/22 04:16:01;;;;;;;14.35;12.95;;;;;;;;;;5022786;28;20692;-75
2023/06/22 04:18:27;;;;;;;17.30;13.88;;;;;;;;;;5020939;28;20057;-75
2023/06/22 04:20:53;;;;;;;14.82;13.35;;;;;;;;;;5036317;28;20050;-74
2023/06/22 04:23:19;;;;;;;17.23;13.98;;;;;;;;;;5012456;28;20038;-77
2023/06/22 04:25:45;;;;;;;19.48;14.90;;;;;;;;;;5000940;28;20368;-76
2023/06/22 04:28:12;;;;;;;15.23;13.68;;;;;;;;;;5017926;28;20060;-75
2023/06/22 04:30:46;;;;;;;14.25;12.80;;;;;;;;;;5024537;28;20383;-75
2023/06/22 04:33:13;;;;;;;16.45;13.65;;;;;;;;;;5016458;28;20021;-73
2023/06/22 04:35:41;;;;;;;16.52;13.73;;;;;;;;;;5019907;28;20025;-81
2023/06/22 04:38:07;;;;;;;17.92;15.45;;;;;;;;;;5030004;28;20035;-78
2023/06/22 04:40:33;;;;;;;19.55;16.65;;;;;;;;;;5032664;28;20025;-82
2023/06/22 04:43:02;;;;;;;21.58;16.42;;;;;;;;;;5026490;28;20107;-72
2023/06/22 04:45:29;;;;;;;16.20;14.55;;;;;;;;;;5029926;28;20021;-73
2023/06/22 04:47:55;;;;;;;23.77;15.88;;;;;;;;;;5058811;28;20227;-75
2023/06/22 04:50:21;;;;;;;17.73;14.48;;;;;;;;;;5019200;28;20036;-73
2023/06/22 04:52:48;;;;;;;17.77;15.00;;;;;;;;;;5023185;28;20034;-73
2023/06/22 04:55:19;;;;;;;18.65;16.13;;;;;;;;;;5020132;28;20042;-71
2023/06/22 04:57:48;;;;;;;23.80;17.25;;;;;;;;;;5015382;28;20057;-73
2023/06/22 05:00:23;;;;;;;19.48;17.38;;;;;;;;;;5022330;28;20068;-72
2023/06/22 05:02:49;;;;;;;22.83;18.42;;;;;;;;;;5024211;28;20083;-71
2023/06/22 05:05:16;;;;;;;23.02;16.80;;;;;;;;;;5024267;28;20079;-73
2023/06/22 05:07:48;;;;;;;20.77;16.80;;;;;;;;;;5029153;28;20029;-73
2023/06/22 05:10:14;;;;;;;19.20;16.83;;;;;;;;;;5023238;28;20033;-73
2023/06/22 05:12:40;;;;;;;20.88;15.32;;;;;;;;;;5021987;28;20183;-74
2023/06/22 05:15:08;;;;;;;22.10;17.00;;;;;;;;;;5022351;28;20095;-71
2023/06/22 05:17:34;;;;;;;19.55;17.08;;;;;;;;;;5023822;28;20034;-74
2023/06/22 05:20:00;;;;;;;24.95;17.00;;;;;;;;;;5022710;28;20084;-73
2023/06/22 05:22:26;;;;;;;263.92;198.90;;;;;;;;;;5052870;28;20491;-74
2023/06/22 05:24:52;;;;;;;31.75;24.05;;;;;;;;;;5022479;28;20026;-74
2023/06/22 05:27:18;;;;;;;31.30;22.65;;;;;;;;;;5024211;28;20026;-75
2023/06/22 05:29:44;;;;;;;24.88;20.13;;;;;;;;;;5021022;28;20041;-73
2023/06/22 05:32:10;;;;;;;20.23;17.48;;;;;;;;;;5022126;28;20044;-72
2023/06/22 05:34:36;;;;;;;23.50;19.23;;;;;;;;;;5024895;28;20151;-72
2023/06/22 05:37:03;;;;;;;23.92;19.13;;;;;;;;;;5020390;28;20025;-75
2023/06/22 05:39:29;;;;;;;25.65;20.67;;;;;;;;;;5022532;28;20033;-74
2023/06/22 05:41:55;;;;;;;25.42;20.23;;;;;;;;;;5022203;28;20067;-75
2023/06/22 05:44:24;;;;;;;27.73;21.67;;;;;;;;;;5031706;28;20024;-76
2023/06/22 05:46:50;;;;;;;30.48;22.67;;;;;;;;;;5029835;28;20021;-75
2023/06/22 05:49:16;;;;;;;26.65;21.30;;;;;;;;;;5028208;28;20467;-74
2023/06/22 05:51:42;;;;;;;28.33;21.00;;;;;;;;;;5029320;28;20090;-74
2023/06/22 05:54:09;;;;;;;25.55;21.15;;;;;;;;;;5041422;28;20017;-74
2023/06/22 05:56:35;;;;;;;27.10;21.33;;;;;;;;;;5029572;28;20032;-75
2023/06/22 05:59:01;;;;;;;29.77;22.75;;;;;;;;;;5027676;28;20037;-72
2023/06/22 06:01:34;;;;;;;27.75;22.75;;;;;;;;;;5024937;28;20029;-72
2023/06/22 06:04:00;;;;;;;30.45;23.88;;;;;;;;;;5021459;28;20044;-72
2023/06/22 06:06:28;;;;;;;30.52;23.85;;;;;;;;;;5022750;28;20072;-73
2023/06/22 06:08:54;;;;;;;26.63;21.45;;;;;;;;;;5024045;28;20159;-72
2023/06/22 06:11:20;;;;;;;30.90;23.70;;;;;;;;;;5024550;28;20056;-72
2023/06/22 06:13:46;;;;;;;29.70;25.05;;;;;;;;;;5024358;28;20487;-71
2023/06/22 06:16:12;;;;;;;28.35;22.35;;;;;;;;;;5024649;28;20547;-71
2023/06/22 06:18:38;;;;;;;25.55;20.92;;;;;;;;;;5025366;28;20129;-70
2023/06/22 06:21:04;;;;;;;26.00;21.25;;;;;;;;;;5022221;28;20045;-71
2023/06/22 06:23:30;;;;;;;25.63;20.65;;;;;;;;;;5019565;28;20456;-71
2023/06/22 06:25:57;;;;;;;26.27;20.33;;;;;;;;;;5019651;28;20026;-71
2023/06/22 06:28:23;;;;;;;22.70;19.55;;;;;;;;;;5024876;28;20557;-71
2023/06/22 06:30:51;;;;;;;20.73;17.95;;;;;;;;;;5021185;28;20046;-71
2023/06/22 06:33:17;;;;;;;28.52;18.58;;;;;;;;;;5025503;28;20049;-71
2023/06/22 06:35:43;;;;;;;23.52;18.60;;;;;;;;;;5025096;28;20076;-71
2023/06/22 06:38:10;;;;;;;22.67;18.40;;;;;;;;;;5026899;28;20087;-71
2023/06/22 06:40:36;;;;;;;23.13;16.48;;;;;;;;;;5014413;28;20840;-71
2023/06/22 06:43:02;;;;;;;19.77;16.65;;;;;;;;;;5023115;28;20387;-72
2023/06/22 06:45:32;;;;;;;22.15;16.42;;;;;;;;;;5027141;28;20030;-71
2023/06/22 06:47:59;;;;;;;22.50;17.98;;;;;;;;;;5026164;28;20022;-71
2023/06/22 06:50:25;;;;;;;43.00;34.22;;;;;;;;;;5022416;28;20047;-72
2023/06/22 06:52:52;;;;;;;30.77;22.80;;;;;;;;;;5026126;28;20048;-72
2023/06/22 06:55:19;;;;;;;22.38;18.58;;;;;;;;;;5060443;28;20021;-70
2023/06/22 06:57:48;;;;;;;21.08;16.75;;;;;;;;;;5027030;28;20495;-70
2023/06/22 07:00:15;;;;;;;20.60;17.58;;;;;;;;;;5029023;28;20034;-70
2023/06/22 07:02:41;;;;;;;26.25;18.55;;;;;;;;;;5025491;28;20029;-71
2023/06/22 07:05:08;;;;;;;22.40;18.15;;;;;;;;;;5025822;28;20088;-71
2023/06/22 07:07:34;;;;;;;20.48;16.42;;;;;;;;;;5024345;28;21870;-72
2023/06/22 07:10:00;;;;;;;19.10;16.23;;;;;;;;;;5023765;28;20099;-72
2023/06/22 07:12:26;;;;;;;20.27;16.10;;;;;;;;;;5023909;28;20084;-73
2023/06/22 07:14:52;;;;;;;17.73;14.98;;;;;;;;;;5026006;28;20057;-73
2023/06/22 07:17:18;;;;;;;16.88;14.90;;;;;;;;;;5033873;28;20029;-72
2023/06/22 07:19:44;;;;;;;17.98;14.75;;;;;;;;;;5036080;28;20390;-73
2023/06/22 07:22:10;;;;;;;16.65;14.93;;;;;;;;;;5032589;28;20475;-73
2023/06/22 07:24:37;;;;;;;18.40;14.05;;;;;;;;;;5030440;28;20109;-72
2023/06/22 07:27:03;;;;;;;15.80;13.77;;;;;;;;;;5031965;28;20032;-73
2023/06/22 07:29:29;;;;;;;14.43;12.50;;;;;;;;;;5033704;28;20057;-73
2023/06/22 07:31:56;;;;;;;15.93;12.65;;;;;;;;;;5027291;28;20037;-73
2023/06/22 07:34:22;;;;;;;13.60;12.10;;;;;;;;;;5032227;28;20037;-73
2023/06/22 07:36:48;;;;;;;15.77;11.40;;;;;;;;;;5030062;28;20643;-73
2023/06/22 07:39:14;;;;;;;13.27;11.57;;;;;;;;;;5029455;28;20029;-73
2023/06/22 07:41:40;;;;;;;13.55;11.40;;;;;;;;;;5029249;28;20029;-73
2023/06/22 07:44:07;;;;;;;12.63;10.25;;;;;;;;;;5032353;28;20033;-73
2023/06/22 07:46:33;;;;;;;13.85;11.30;;;;;;;;;;5030805;28;20033;-73
2023/06/22 07:48:59;;;;;;;14.65;11.23;;;;;;;;;;5031588;28;20045;-73
2023/06/22 07:51:25;;;;;;;14.07;11.32;;;;;;;;;;5031694;28;20044;-73
2023/06/22 07:53:51;;;;;;;14.73;10.82;;;;;;;;;;5026886;28;20044;-73
2023/06/22 07:56:20;;;;;;;14.95;10.18;;;;;;;;;;5028387;28;20032;-73
2023/06/22 07:58:46;;;;;;;14.05;11.43;;;;;;;;;;5031450;28;20038;-73
2023/06/22 08:01:12;;;;;;;14.57;11.65;;;;;;;;;;5033062;28;20458;-73
2023/06/22 08:03:39;;;;;;;11.65;10.23;;;;;;;;;;5032750;28;20395;-73
2023/06/22 08:06:05;;;;;;;12.82;11.52;;;;;;;;;;5032153;28;20028;-73
2023/06/22 08:08:31;;;;;;;14.95;10.75;;;;;;;;;;5031715;28;20025;-72
2023/06/22 08:10:57;;;;;;;12.35;10.07;;;;;;;;;;5029432;28;20083;-73
2023/06/22 08:13:25;;;;;;;13.77;11.30;;;;;;;;;;5022430;28;20038;-73
2023/06/22 08:15:51;;;;;;;16.80;11.05;;;;;;;;;;5031115;28;20046;-73
2023/06/22 08:18:17;;;;;;;13.32;10.48;;;;;;;;;;5024435;28;20419;-73
2023/06/22 08:20:43;;;;;;;13.73;10.57;;;;;;;;;;5033482;28;20110;-73
2023/06/22 08:23:09;;;;;;;12.38;10.27;;;;;;;;;;5031084;28;20025;-73
2023/06/22 08:25:35;;;;;;;13.98;10.25;;;;;;;;;;5032639;28;20022;-74
2023/06/22 08:28:02;;;;;;;9.88;8.75;;;;;;;;;;5045833;28;20046;-73
2023/06/22 08:30:28;;;;;;;14.70;9.45;;;;;;;;;;5030885;28;20018;-73
2023/06/22 08:32:55;;;;;;;13.32;8.93;;;;;;;;;;5031984;28;20077;-73
2023/06/22 08:35:21;;;;;;;15.23;9.07;;;;;;;;;;5031679;28;20033;-73
2023/06/22 08:37:52;;;;;;;13.52;8.98;;;;;;;;;;5028798;28;20171;-74
2023/06/22 08:40:22;;;;;;;9.20;8.02;;;;;;;;;;5050466;28;20029;-74
2023/06/22 08:42:49;;;;;;;8.23;7.07;;;;;;;;;;5032493;28;20064;-73
2023/06/22 08:45:15;;;;;;;9.40;7.72;;;;;;;;;;5029529;28;20121;-73
2023/06/22 08:47:42;;;;;;;11.23;6.75;;;;;;;;;;5030714;28;20104;-73
2023/06/22 08:50:08;;;;;;;11.35;6.82;;;;;;;;;;5021650;28;20425;-84
2023/06/22 08:52:35;;;;;;;8.23;6.15;;;;;;;;;;5024390;28;20740;-83
2023/06/22 08:55:01;;;;;;;8.23;6.82;;;;;;;;;;5020310;28;20058;-72
2023/06/22 08:57:28;;;;;;;7.82;6.45;;;;;;;;;;5024262;28;20383;-73
2023/06/22 08:59:58;;;;;;;7.95;7.15;;;;;;;;;;5020741;28;20044;-74
2023/06/22 09:02:24;;;;;;;10.32;7.10;;;;;;;;;;5055317;28;20490;-74
2023/06/22 09:04:55;;;;;;;7.50;6.70;;;;;;;;;;5029206;28;20071;-74
2023/06/22 09:07:23;;;;;;;8.65;6.65;;;30.60;99.90;;;;;;5019457;28;20032;-75
2023/06/22 09:09:51;;;;;;;8.32;6.82;;;30.60;99.90;;;;;;5027266;28;20126;-74
2023/06/22 09:12:22;;;;;;;8.77;7.80;;;30.80;99.90;;;;;;5030489;28;20168;-74
2023/06/22 09:14:48;;;;;;;12.65;7.38;;;30.90;99.90;;;;;;5026944;28;20037;-74
2023/06/22 09:17:14;;;;;;;9.43;6.72;;;;;;;;;;5033935;28;20376;-74
2023/06/22 09:19:40;;;;;;;8.13;6.03;;;;;;;;;;5063231;28;20040;-74
2023/06/22 09:22:06;;;;;;;8.35;6.57;;;;;;;;;;5030725;28;20128;-74
2023/06/22 09:24:32;;;;;;;8.32;6.38;;;;;;;;;;5028865;28;20037;-74
2023/06/22 09:26:58;;;;;;;9.98;8.10;;;;;;;;;;5030684;28;20061;-74
2023/06/22 09:29:25;;;;;;;8.85;7.03;;;;;;;;;;5031205;28;20129;-74
2023/06/22 09:31:53;;;;;;;10.02;7.60;;;;;;;;;;5031411;28;20072;-75
2023/06/22 09:34:20;;;;;;;9.00;7.15;;;;;;;;;;5026284;28;20080;-74
2023/06/22 09:36:46;;;;;;;11.02;6.38;;;;;;;;;;5031295;28;20037;-74
2023/06/22 09:39:12;;;;;;;7.03;6.05;;;;;;;;;;5028449;28;20033;-74
2023/06/22 09:41:38;;;;;;;8.07;5.95;;;;;;;;;;5029617;28;20036;-74
2023/06/22 09:44:04;;;;;;;7.75;6.45;;;;;;;;;;5031284;28;20392;-74
2023/06/22 09:46:30;;;;;;;10.38;6.35;;;;;;;;;;5030897;28;20060;-74
2023/06/22 09:48:56;;;;;;;7.15;5.90;;;;;;;;;;5017876;28;20041;-73
2023/06/22 09:51:23;;;;;;;10.30;5.47;;;;;;;;;;5030743;28;20044;-73
2023/06/22 09:53:50;;;;;;;7.70;6.40;;;;;;;;;;5030943;28;20030;-73
2023/06/22 09:56:16;;;;;;;8.68;6.00;;;;;;;;;;5031462;28;20025;-73
2023/06/22 09:58:44;;;;;;;7.38;6.05;;;;;;;;;;5030129;28;20099;-73
2023/06/22 10:01:10;;;;;;;9.32;6.10;;;;;;;;;;5029917;28;20034;-73
2023/06/22 10:03:36;;;;;;;7.60;5.30;;;;;;;;;;5030436;28;20593;-74
2023/06/22 10:06:02;;;;;;;8.38;6.25;;;;;;;;;;5055610;28;20026;-73
2023/06/22 10:08:28;;;;;;;6.80;5.47;;;;;;;;;;5028048;28;20134;-74
2023/06/22 10:10:54;;;;;;;7.97;5.57;;;;;;;;;;5015986;28;20036;-74
2023/06/22 10:13:20;;;;;;;9.65;5.90;;;;;;;;;;5026642;28;20041;-72
2023/06/22 10:15:51;;;;;;;9.68;5.60;;;;;;;;;;5020977;28;20037;-71
2023/06/22 10:18:18;;;;;;;6.00;5.32;;;;;;;;;;5021183;28;20473;-71
2023/06/22 10:20:44;;;;;;;8.18;5.22;;;;;;;;;;5024815;28;20030;-71
2023/06/22 10:23:10;;;;;;;9.13;5.72;;;;;;;;;;5030471;28;20418;-71
2023/06/22 10:25:36;;;;;;;5.55;4.75;;;;;;;;;;5029973;28;20034;-71
2023/06/22 10:28:04;;;;;;;7.13;5.25;;;;;;;;;;5061457;28;20066;-71
2023/06/22 10:30:30;;;;;;;7.93;4.88;;;;;;;;;;5030288;28;20034;-71
2023/06/22 10:32:56;;;;;;;4.85;3.55;;;;;;;;;;5017381;28;20513;-75
2023/06/22 10:35:22;;;;;;;6.22;4.20;;;;;;;;;;5017910;28;20092;-75
2023/06/22 10:37:50;;;;;;;6.82;4.30;;;;;;;;;;5019762;28;20034;-74
2023/06/22 10:40:18;;;;;;;6.18;4.40;;;;;;;;;;5041285;28;20083;-74
2023/06/22 10:42:44;;;;;;;7.25;5.10;;;;;;;;;;5022502;28;20445;-74
2023/06/22 10:45:11;;;;;;;7.35;5.40;;;;;;;;;;5024032;28;20053;-75
2023/06/22 10:47:37;;;;;;;8.30;5.22;;;;;;;;;;5030693;28;20021;-75
2023/06/22 10:50:04;;;;;;;4.97;3.90;;;;;;;;;;5025389;28;20494;-75
2023/06/22 10:52:30;;;;;;;6.28;4.57;;;;;;;;;;5024468;28;20037;-74
2023/06/22 10:54:56;;;;;;;6.22;5.60;;;;;;;;;;5027986;28;20433;-75
2023/06/22 10:57:22;;;;;;;5.40;4.82;;;;;;;;;;5030193;28;20030;-76
2023/06/22 10:59:48;;;;;;;5.65;4.43;;;;;;;;;;5042345;28;20033;-74
2023/06/22 11:02:15;;;;;;;11.73;4.93;;;;;;;;;;5013320;28;20064;-75
2023/06/22 11:04:41;;;;;;;6.07;4.30;;;;;;;;;;5018877;28;20041;-75
2023/06/22 11:07:08;;;;;;;6.80;4.88;;;;;;;;;;5056828;28;20506;-74
2023/06/22 11:09:34;;;;;;;6.43;4.45;;;;;;;;;;5023161;28;20033;-74
2023/06/22 11:12:02;;;;;;;7.82;3.90;;;;;;;;;;5023907;28;20033;-75
2023/06/22 11:14:28;;;;;;;7.32;5.35;;;;;;;;;;5018797;28;20049;-76
2023/06/22 11:16:54;;;;;;;10.10;5.75;;;;;;;;;;5031990;28;20030;-75
2023/06/22 11:19:20;;;;;;;9.70;4.95;;;;;;;;;;5032269;28;20038;-76
2023/06/22 11:21:46;;;;;;;8.18;5.05;;;;;;;;;;5026802;28;20052;-77
2023/06/22 11:24:12;;;;;;;6.47;4.45;;;;;;;;;;5031204;28;20451;-74
2023/06/22 11:26:38;;;;;;;10.32;4.22;;;;;;;;;;5028532;28;20037;-75
2023/06/22 11:29:05;;;;;;;5.18;4.15;;;;;;;;;;5054394;28;20056;-74
2023/06/22 11:31:32;;;;;;;7.35;5.47;;;;;;;;;;5031787;28;20094;-74
2023/06/22 11:33:58;;;;;;;7.07;5.28;;;;;;;;;;5033403;28;20092;-74
2023/06/22 11:36:24;;;;;;;7.05;4.75;;;;;;;;;;5028950;28;20053;-75
2023/06/22 11:38:51;;;;;;;4.95;4.43;;;;;;;;;;5027031;28;20034;-75
2023/06/22 11:41:17;;;;;;;5.90;4.40;;;;;;;;;;5024224;28;20045;-75
2023/06/22 11:43:43;;;;;;;5.25;3.85;;;;;;;;;;5026511;28;20030;-76
2023/06/22 11:46:11;;;;;;;7.55;4.63;;;;;;;;;;5056980;28;20036;-76
2023/06/22 11:48:37;;;;;;;5.80;4.85;;;;;;;;;;5026739;28;20058;-75
2023/06/22 11:51:06;;;;;;;7.53;4.53;;;;;;;;;;5051982;28;20059;-76
2023/06/22 11:53:32;;;;;;;6.55;3.65;;;;;;;;;;5056827;28;20089;-75
2023/06/22 11:55:59;;;;;;;4.97;3.75;;;;;;;;;;5020742;28;20025;-75
2023/06/22 11:58:26;;;;;;;8.73;4.63;;;;;;;;;;5021616;28;20076;-75
2023/06/22 12:00:52;;;;;;;5.40;3.97;;;;;;;;;;5025054;28;20057;-74
2023/06/22 12:03:18;;;;;;;6.50;3.75;;;;;;;;;;5019692;28;20663;-75
2023/06/22 12:05:44;;;;;;;6.40;3.78;;;;;;;;;;5056376;28;20073;-75
2023/06/22 12:08:11;;;;;;;6.35;3.63;;;;;;;;;;5024603;28;20081;-75
2023/06/22 12:10:39;;;;;;;5.53;4.53;;;;;;;;;;5018211;28;20026;-75
2023/06/22 12:13:05;;;;;;;8.70;4.20;;;;;;;;;;5027248;28;20049;-75
2023/06/22 12:15:31;;;;;;;6.57;4.43;;;;;;;;;;5030924;28;20034;-75
2023/06/22 12:17:57;;;;;;;7.53;5.00;;;;;;;;;;5022089;28;20490;-74
2023/06/22 12:20:23;;;;;;;6.80;4.15;;;;;;;;;;5030586;28;20112;-74
2023/06/22 12:22:51;;;;;;;8.82;4.45;;;;;;;;;;5044208;28;20037;-75
2023/06/22 12:25:17;;;;;;;8.07;4.68;;;;;;;;;;5030062;28;20037;-75
2023/06/22 12:27:43;;;;;;;8.63;4.80;;;;;;;;;;5063552;28;20069;-75
2023/06/22 12:30:12;;;;;;;7.40;4.57;;;;;;;;;;5031990;28;20100;-75
2023/06/22 12:32:38;;;;;;;6.97;4.57;;;;;;;;;;5032107;28;20052;-75
2023/06/22 12:35:04;;;;;;;5.97;3.83;;;;;;;;;;5032141;28;20041;-75
2023/06/22 12:37:32;;;;;;;6.88;3.78;;;;;;;;;;5030264;28;20061;-75
2023/06/22 12:39:58;;;;;;;5.28;4.18;;;;;;;;;;5029014;28;20075;-75
2023/06/22 12:42:26;;;;;;;6.03;4.07;;;;;;;;;;5023315;28;20025;-75
2023/06/22 12:44:53;;;;;;;7.03;4.45;;;;;;;;;;5021442;28;20378;-74
2023/06/22 12:47:20;;;;;;;7.07;4.53;;;;;;;;;;5021651;28;20046;-75
2023/06/22 12:49:46;;;;;;;6.32;4.70;;;;;;;;;;5022474;28;20033;-75
2023/06/22 12:52:12;;;;;;;11.55;5.15;;;;;;;;;;5027127;28;20087;-75
2023/06/22 12:54:38;;;;;;;9.98;4.50;;;;;;;;;;5019619;28;20042;-74
2023/06/22 12:57:06;;;;;;;6.82;5.35;;;;;;;;;;5019189;28;20025;-74
2023/06/22 12:59:32;;;;;;;9.10;5.47;;;;;;;;;;5022969;28;20037;-75
2023/06/22 13:01:58;;;;;;;7.32;5.28;;;;;;;;;;5022806;28;20112;-74
2023/06/22 13:04:24;;;;;;;7.50;6.60;;;;;;;;;;5020932;28;20105;-70
2023/06/22 13:06:50;;;;;;;7.30;4.93;;;;;;;;;;5027684;28;20030;-70
2023/06/22 13:09:16;;;;;;;6.75;4.43;;;;;;;;;;5045187;28;20038;-70
2023/06/22 13:11:43;;;;;;;6.20;5.43;;;;;;;;;;5020396;28;20445;-71
2023/06/22 13:14:09;;;;;;;5.35;4.43;;;;;;;;;;5023237;28;20049;-71
2023/06/22 13:16:35;;;;;;;7.20;5.03;;;;;;;;;;5022693;28;20032;-70
2023/06/22 13:19:01;;;;;;;5.95;4.80;;;;;;;;;;5018158;28;20038;-71
2023/06/22 13:21:31;;;;;;;5.05;4.18;;;;;;;;;;5019773;28;20088;-71
2023/06/22 13:23:57;;;;;;;7.53;4.80;;;;;;;;;;5023224;28;20048;-70
2023/06/22 13:26:23;;;;;;;6.70;4.80;;;;;;;;;;5035642;28;20087;-71
2023/06/22 13:28:49;;;;;;;6.93;5.72;;;;;;;;;;5023833;28;20064;-71
2023/06/22 13:31:15;;;;;;;9.77;5.10;;;;;;;;;;5022230;28;20045;-71
2023/06/22 13:33:44;;;;;;;5.30;4.18;;;;;;;;;;5023926;28;20455;-71
2023/06/22 13:36:10;;;;;;;6.47;5.30;;;;;;;;;;5053138;28;20534;-71
2023/06/22 13:38:38;;;;;;;7.40;4.25;;;;;;;;;;5050370;28;20029;-71
2023/06/22 13:41:04;;;;;;;7.95;4.65;;;;;;;;;;5021573;28;20056;-70
2023/06/22 13:43:30;;;;;;;6.20;4.32;;;;;;;;;;5020168;28;21657;-70
2023/06/22 13:45:56;;;;;;;8.57;4.68;;;;;;;;;;5023390;28;20052;-73
2023/06/22 13:48:23;;;;;;;6.03;4.90;;;;;;;;;;5021673;28;20037;-73
2023/06/22 13:50:49;;;;;;;7.50;4.75;;;;;;;;;;5023873;28;20029;-76
2023/06/22 13:53:15;;;;;;;7.63;5.00;;;;;;;;;;5019381;28;20096;-72
2023/06/22 13:55:41;;;;;;;5.30;4.47;;;;;;;;;;5021707;28;20041;-73
2023/06/22 13:58:07;;;;;;;5.70;4.22;;;;;;;;;;5022947;28;20037;-74
2023/06/22 14:00:33;;;;;;;4.75;4.18;;;;;;;;;;5022684;28;20036;-73
2023/06/22 14:02:59;;;;;;;14.18;5.00;;;;;;;;;;5023203;28;20438;-72
2023/06/22 14:05:27;;;;;;;9.40;3.28;;;;;;;;;;5021669;28;20403;-74
2023/06/22 14:07:53;;;;;;;4.90;3.30;;;;;;;;;;5024551;28;20029;-74
2023/06/22 14:10:19;;;;;;;6.13;2.78;;;;;;;;;;5022101;28;20043;-73
2023/06/22 14:12:45;;;;;;;8.13;3.03;;;;;;;;;;5020935;28;21235;-74
2023/06/22 14:15:11;;;;;;;2.80;2.22;;;;;;;;;;5024579;28;20095;-74
2023/06/22 14:17:37;;;;;;;5.85;2.63;;;;;;;;;;5022300;28;20522;-75
2023/06/22 14:20:05;;;;;;;4.50;2.42;;;;;;;;;;5021331;28;20037;-75
2023/06/22 14:22:31;;;;;;;5.78;2.60;;;;;;;;;;5023615;28;20395;-81